sensor_id;sensor_type;location;lat;lon;timestamp;pressure;altitude;pressure_sealevel;temperature
13570;BMP180;6856;51.460;7.158;2022-12-01T00:01:06;101298.00;;;10.50
13570;BMP180;6856;51.460;7.158;2022-12-01T00:03:47;101364.00;;;10.50
13570;BMP180;6856;51.460;7.158;2022-12-01T00:06:34;101356.00;;;10.50
13570;BMP180;6856;51.460;7.158;2022-12-01T00:09:11;101365.00;;;10.50
13570;BMP180;6856;51.460;7.158;2022-12-01T00:12:32;101385.00;;;10.50
13570;BMP180;6856;51.460;7.158;2022-12-01T00:15:10;101306.00;;;10.50
13570;BMP180;6856;51.460;7.158;2022-12-01T00:17:47;101359.00;;;10.50
13570;BMP180;6856;51.460;7.158;2022-12-01T00:20:23;101277.00;;;10.40
13570;BMP180;6856;51.460;7.158;2022-12-01T00:22:59;101330.00;;;10.50
13570;BMP180;6856;51.460;7.158;2022-12-01T00:25:39;101368.00;;;10.50
13570;BMP180;6856;51.460;7.158;2022-12-01T00:28:14;101328.00;;;10.40
13570;BMP180;6856;51.460;7.158;2022-12-01T00:30:55;101342.00;;;10.50
13570;BMP180;6856;51.460;7.158;2022-12-01T00:33:43;101288.00;;;10.40
13570;BMP180;6856;51.460;7.158;2022-12-01T00:36:23;101362.00;;;10.20
13570;BMP180;6856;51.460;7.158;2022-12-01T00:38:59;101298.00;;;10.40
13570;BMP180;6856;51.460;7.158;2022-12-01T00:41:37;101317.00;;;10.50
13570;BMP180;6856;51.460;7.158;2022-12-01T00:44:12;101366.00;;;10.40
13570;BMP180;6856;51.460;7.158;2022-12-01T00:46:50;101319.00;;;10.40
13570;BMP180;6856;51.460;7.158;2022-12-01T00:49:28;101377.00;;;10.40
13570;BMP180;6856;51.460;7.158;2022-12-01T00:52:07;101305.00;;;10.40
13570;BMP180;6856;51.460;7.158;2022-12-01T00:55:12;101349.00;;;10.40
13570;BMP180;6856;51.460;7.158;2022-12-01T00:57:56;101291.00;;;10.30
13570;BMP180;6856;51.460;7.158;2022-12-01T01:00:41;101313.00;;;10.40
13570;BMP180;6856;51.460;7.158;2022-12-01T01:03:31;101352.00;;;10.30
13570;BMP180;6856;51.460;7.158;2022-12-01T01:06:09;101318.00;;;10.20
13570;BMP180;6856;51.460;7.158;2022-12-01T01:08:57;101283.00;;;10.50
13570;BMP180;6856;51.460;7.158;2022-12-01T01:11:39;101285.00;;;10.50
13570;BMP180;6856;51.460;7.158;2022-12-01T01:14:15;101339.00;;;10.50
13570;BMP180;6856;51.460;7.158;2022-12-01T01:17:16;101316.00;;;10.50
13570;BMP180;6856;51.460;7.158;2022-12-01T01:19:56;101294.00;;;10.40
13570;BMP180;6856;51.460;7.158;2022-12-01T01:22:34;101330.00;;;10.40
13570;BMP180;6856;51.460;7.158;2022-12-01T01:25:08;101324.00;;;10.50
13570;BMP180;6856;51.460;7.158;2022-12-01T01:27:44;101384.00;;;10.50
13570;BMP180;6856;51.460;7.158;2022-12-01T01:30:34;101334.00;;;10.50
13570;BMP180;6856;51.460;7.158;2022-12-01T01:33:09;101320.00;;;10.50
13570;BMP180;6856;51.460;7.158;2022-12-01T01:36:02;101390.00;;;10.50
13570;BMP180;6856;51.460;7.158;2022-12-01T01:38:46;101382.00;;;10.50
13570;BMP180;6856;51.460;7.158;2022-12-01T01:41:26;101378.00;;;10.50
13570;BMP180;6856;51.460;7.158;2022-12-01T01:46:57;101335.00;;;10.40
13570;BMP180;6856;51.460;7.158;2022-12-01T01:49:49;101301.00;;;10.40
13570;BMP180;6856;51.460;7.158;2022-12-01T01:52:27;101307.00;;;10.40
13570;BMP180;6856;51.460;7.158;2022-12-01T01:55:11;101310.00;;;10.30
13570;BMP180;6856;51.460;7.158;2022-12-01T01:58:14;101339.00;;;10.40
13570;BMP180;6856;51.460;7.158;2022-12-01T02:00:52;101407.00;;;10.40
13570;BMP180;6856;51.460;7.158;2022-12-01T02:03:41;101387.00;;;10.20
13570;BMP180;6856;51.460;7.158;2022-12-01T02:06:47;101394.00;;;10.40
13570;BMP180;6856;51.460;7.158;2022-12-01T02:09:29;101368.00;;;10.40
13570;BMP180;6856;51.460;7.158;2022-12-01T02:12:23;101324.00;;;10.40
13570;BMP180;6856;51.460;7.158;2022-12-01T02:15:39;101402.00;;;10.40
13570;BMP180;6856;51.460;7.158;2022-12-01T02:18:27;101351.00;;;10.40
13570;BMP180;6856;51.460;7.158;2022-12-01T02:21:53;101385.00;;;10.40
13570;BMP180;6856;51.460;7.158;2022-12-01T02:25:17;101390.00;;;10.30
13570;BMP180;6856;51.460;7.158;2022-12-01T02:28:47;101384.00;;;10.40
13570;BMP180;6856;51.460;7.158;2022-12-01T02:31:39;101380.00;;;10.40
13570;BMP180;6856;51.460;7.158;2022-12-01T02:34:47;101376.00;;;10.40
13570;BMP180;6856;51.460;7.158;2022-12-01T02:37:35;101329.00;;;10.40
13570;BMP180;6856;51.460;7.158;2022-12-01T02:40:27;101412.00;;;10.40
13570;BMP180;6856;51.460;7.158;2022-12-01T02:43:12;101328.00;;;10.40
13570;BMP180;6856;51.460;7.158;2022-12-01T02:45:52;101330.00;;;10.20
13570;BMP180;6856;51.460;7.158;2022-12-01T02:48:39;101380.00;;;10.30
13570;BMP180;6856;51.460;7.158;2022-12-01T02:51:28;101379.00;;;10.10
13570;BMP180;6856;51.460;7.158;2022-12-01T02:54:07;101341.00;;;10.20
13570;BMP180;6856;51.460;7.158;2022-12-01T02:56:44;101368.00;;;10.40
13570;BMP180;6856;51.460;7.158;2022-12-01T02:59:18;101393.00;;;10.40
13570;BMP180;6856;51.460;7.158;2022-12-01T03:02:04;101316.00;;;10.40
13570;BMP180;6856;51.460;7.158;2022-12-01T03:05:09;101380.00;;;10.40
13570;BMP180;6856;51.460;7.158;2022-12-01T03:08:01;101357.00;;;10.40
13570;BMP180;6856;51.460;7.158;2022-12-01T03:10:49;101326.00;;;10.30
13570;BMP180;6856;51.460;7.158;2022-12-01T03:13:38;101395.00;;;10.30
13570;BMP180;6856;51.460;7.158;2022-12-01T03:16:23;101372.00;;;10.20
13570;BMP180;6856;51.460;7.158;2022-12-01T03:19:09;101326.00;;;10.30
13570;BMP180;6856;51.460;7.158;2022-12-01T03:21:59;101400.00;;;10.30
13570;BMP180;6856;51.460;7.158;2022-12-01T03:24:40;101350.00;;;10.30
13570;BMP180;6856;51.460;7.158;2022-12-01T03:27:27;101393.00;;;10.30
13570;BMP180;6856;51.460;7.158;2022-12-01T03:30:09;101375.00;;;10.30
13570;BMP180;6856;51.460;7.158;2022-12-01T03:33:23;101384.00;;;10.20
13570;BMP180;6856;51.460;7.158;2022-12-01T03:36:13;101355.00;;;10.20
13570;BMP180;6856;51.460;7.158;2022-12-01T03:39:01;101331.00;;;10.30
13570;BMP180;6856;51.460;7.158;2022-12-01T03:42:06;101316.00;;;10.20
13570;BMP180;6856;51.460;7.158;2022-12-01T03:45:15;101356.00;;;10.20
13570;BMP180;6856;51.460;7.158;2022-12-01T03:47:57;101336.00;;;10.30
13570;BMP180;6856;51.460;7.158;2022-12-01T03:51:05;101314.00;;;10.20
13570;BMP180;6856;51.460;7.158;2022-12-01T03:54:12;101419.00;;;10.00
13570;BMP180;6856;51.460;7.158;2022-12-01T03:56:59;101290.00;;;10.20
13570;BMP180;6856;51.460;7.158;2022-12-01T03:59:54;101410.00;;;10.20
13570;BMP180;6856;51.460;7.158;2022-12-01T04:02:34;101408.00;;;10.10
13570;BMP180;6856;51.460;7.158;2022-12-01T04:05:10;101325.00;;;10.20
13570;BMP180;6856;51.460;7.158;2022-12-01T04:07:44;101387.00;;;10.00
13570;BMP180;6856;51.460;7.158;2022-12-01T04:10:22;101385.00;;;10.10
13570;BMP180;6856;51.460;7.158;2022-12-01T04:12:56;101402.00;;;10.00
13570;BMP180;6856;51.460;7.158;2022-12-01T04:15:57;101317.00;;;10.20
13570;BMP180;6856;51.460;7.158;2022-12-01T04:18:31;101391.00;;;10.30
13570;BMP180;6856;51.460;7.158;2022-12-01T04:21:11;101410.00;;;10.20
13570;BMP180;6856;51.460;7.158;2022-12-01T04:24:03;101394.00;;;10.30
13570;BMP180;6856;51.460;7.158;2022-12-01T04:30:08;101395.00;;;10.20
13570;BMP180;6856;51.460;7.158;2022-12-01T04:32:57;101398.00;;;10.30
13570;BMP180;6856;51.460;7.158;2022-12-01T04:35:33;101388.00;;;10.30
13570;BMP180;6856;51.460;7.158;2022-12-01T04:38:11;101402.00;;;10.30
13570;BMP180;6856;51.460;7.158;2022-12-01T04:40:46;101397.00;;;10.30
13570;BMP180;6856;51.460;7.158;2022-12-01T04:43:24;101352.00;;;10.10
13570;BMP180;6856;51.460;7.158;2022-12-01T04:46:03;101321.00;;;10.30
13570;BMP180;6856;51.460;7.158;2022-12-01T04:48:41;101399.00;;;10.10
13570;BMP180;6856;51.460;7.158;2022-12-01T04:51:16;101379.00;;;10.30
13570;BMP180;6856;51.460;7.158;2022-12-01T04:54:16;101379.00;;;10.30
13570;BMP180;6856;51.460;7.158;2022-12-01T04:56:54;101287.00;;;10.30
13570;BMP180;6856;51.460;7.158;2022-12-01T04:59:32;101374.00;;;10.10
13570;BMP180;6856;51.460;7.158;2022-12-01T05:02:08;101387.00;;;10.30
13570;BMP180;6856;51.460;7.158;2022-12-01T05:04:45;101332.00;;;10.30
13570;BMP180;6856;51.460;7.158;2022-12-01T05:07:22;101320.00;;;10.30
13570;BMP180;6856;51.460;7.158;2022-12-01T05:10:03;101302.00;;;10.20
13570;BMP180;6856;51.460;7.158;2022-12-01T05:12:38;101374.00;;;10.10
13570;BMP180;6856;51.460;7.158;2022-12-01T05:18:23;101362.00;;;10.00
13570;BMP180;6856;51.460;7.158;2022-12-01T05:21:10;101397.00;;;10.20
13570;BMP180;6856;51.460;7.158;2022-12-01T05:23:45;101346.00;;;10.20
13570;BMP180;6856;51.460;7.158;2022-12-01T05:26:33;101369.00;;;10.20
13570;BMP180;6856;51.460;7.158;2022-12-01T05:29:14;101406.00;;;10.20
13570;BMP180;6856;51.460;7.158;2022-12-01T05:32:15;101281.00;;;10.10
13570;BMP180;6856;51.460;7.158;2022-12-01T05:34:51;101417.00;;;10.10
13570;BMP180;6856;51.460;7.158;2022-12-01T05:37:29;101341.00;;;10.10
13570;BMP180;6856;51.460;7.158;2022-12-01T05:40:08;101383.00;;;10.10
13570;BMP180;6856;51.460;7.158;2022-12-01T05:42:43;101342.00;;;10.10
13570;BMP180;6856;51.460;7.158;2022-12-01T05:45:18;101400.00;;;10.10
13570;BMP180;6856;51.460;7.158;2022-12-01T05:48:07;101318.00;;;10.10
13570;BMP180;6856;51.460;7.158;2022-12-01T05:51:18;101384.00;;;10.10
13570;BMP180;6856;51.460;7.158;2022-12-01T05:53:57;101347.00;;;10.10
13570;BMP180;6856;51.460;7.158;2022-12-01T05:56:58;101382.00;;;9.90
13570;BMP180;6856;51.460;7.158;2022-12-01T05:59:35;101329.00;;;10.10
13570;BMP180;6856;51.460;7.158;2022-12-01T06:02:11;101381.00;;;10.00
13570;BMP180;6856;51.460;7.158;2022-12-01T06:05:28;101312.00;;;10.10
13570;BMP180;6856;51.460;7.158;2022-12-01T06:08:08;101315.00;;;10.10
13570;BMP180;6856;51.460;7.158;2022-12-01T06:10:48;101373.00;;;10.10
13570;BMP180;6856;51.460;7.158;2022-12-01T06:13:24;101345.00;;;10.10
13570;BMP180;6856;51.460;7.158;2022-12-01T06:16:10;101407.00;;;10.10
13570;BMP180;6856;51.460;7.158;2022-12-01T06:18:44;101340.00;;;10.20
13570;BMP180;6856;51.460;7.158;2022-12-01T06:21:37;101312.00;;;10.20
13570;BMP180;6856;51.460;7.158;2022-12-01T06:24:20;101326.00;;;10.00
13570;BMP180;6856;51.460;7.158;2022-12-01T06:27:08;101402.00;;;10.20
13570;BMP180;6856;51.460;7.158;2022-12-01T06:29:51;101358.00;;;9.80
13570;BMP180;6856;51.460;7.158;2022-12-01T06:32:31;101373.00;;;10.10
13570;BMP180;6856;51.460;7.158;2022-12-01T06:35:14;101361.00;;;10.00
13570;BMP180;6856;51.460;7.158;2022-12-01T06:37:59;101355.00;;;10.10
13570;BMP180;6856;51.460;7.158;2022-12-01T06:40:43;101360.00;;;10.10
13570;BMP180;6856;51.460;7.158;2022-12-01T06:43:18;101416.00;;;10.10
13570;BMP180;6856;51.460;7.158;2022-12-01T06:45:57;101369.00;;;10.00
13570;BMP180;6856;51.460;7.158;2022-12-01T06:48:38;101370.00;;;10.20
13570;BMP180;6856;51.460;7.158;2022-12-01T06:51:22;101375.00;;;10.10
13570;BMP180;6856;51.460;7.158;2022-12-01T06:53:59;101422.00;;;9.90
13570;BMP180;6856;51.460;7.158;2022-12-01T06:56:44;101456.00;;;10.20
13570;BMP180;6856;51.460;7.158;2022-12-01T06:59:44;101345.00;;;10.10
13570;BMP180;6856;51.460;7.158;2022-12-01T07:02:19;101420.00;;;10.10
13570;BMP180;6856;51.460;7.158;2022-12-01T07:04:56;101424.00;;;9.90
13570;BMP180;6856;51.460;7.158;2022-12-01T07:07:36;101451.00;;;10.10
13570;BMP180;6856;51.460;7.158;2022-12-01T07:10:12;101437.00;;;10.10
13570;BMP180;6856;51.460;7.158;2022-12-01T07:12:57;101439.00;;;10.10
13570;BMP180;6856;51.460;7.158;2022-12-01T07:15:32;101395.00;;;10.10
13570;BMP180;6856;51.460;7.158;2022-12-01T07:18:35;101418.00;;;10.00
13570;BMP180;6856;51.460;7.158;2022-12-01T07:21:13;101429.00;;;10.00
13570;BMP180;6856;51.460;7.158;2022-12-01T07:23:51;101337.00;;;10.00
13570;BMP180;6856;51.460;7.158;2022-12-01T07:26:31;101374.00;;;10.00
13570;BMP180;6856;51.460;7.158;2022-12-01T07:29:09;101373.00;;;9.90
13570;BMP180;6856;51.460;7.158;2022-12-01T07:31:51;101443.00;;;10.00
13570;BMP180;6856;51.460;7.158;2022-12-01T07:34:33;101365.00;;;9.90
13570;BMP180;6856;51.460;7.158;2022-12-01T07:37:12;101446.00;;;9.80
13570;BMP180;6856;51.460;7.158;2022-12-01T07:40:05;101357.00;;;9.80
13570;BMP180;6856;51.460;7.158;2022-12-01T07:42:42;101444.00;;;10.00
13570;BMP180;6856;51.460;7.158;2022-12-01T07:45:26;101428.00;;;9.80
13570;BMP180;6856;51.460;7.158;2022-12-01T07:48:05;101413.00;;;9.90
13570;BMP180;6856;51.460;7.158;2022-12-01T07:51:04;101435.00;;;9.90
13570;BMP180;6856;51.460;7.158;2022-12-01T07:53:42;101451.00;;;9.90
13570;BMP180;6856;51.460;7.158;2022-12-01T07:56:41;101381.00;;;9.90
13570;BMP180;6856;51.460;7.158;2022-12-01T07:59:22;101424.00;;;9.90
13570;BMP180;6856;51.460;7.158;2022-12-01T08:02:00;101416.00;;;9.90
13570;BMP180;6856;51.460;7.158;2022-12-01T08:04:35;101441.00;;;9.90
13570;BMP180;6856;51.460;7.158;2022-12-01T08:07:12;101446.00;;;10.00
13570;BMP180;6856;51.460;7.158;2022-12-01T08:09:50;101456.00;;;10.00
13570;BMP180;6856;51.460;7.158;2022-12-01T08:12:28;101463.00;;;10.00
13570;BMP180;6856;51.460;7.158;2022-12-01T08:15:06;101450.00;;;10.00
13570;BMP180;6856;51.460;7.158;2022-12-01T08:17:46;101463.00;;;10.00
13570;BMP180;6856;51.460;7.158;2022-12-01T08:20:22;101448.00;;;9.90
13570;BMP180;6856;51.460;7.158;2022-12-01T08:23:22;101428.00;;;9.70
13570;BMP180;6856;51.460;7.158;2022-12-01T08:26:05;101383.00;;;10.00
13570;BMP180;6856;51.460;7.158;2022-12-01T08:29:02;101413.00;;;10.00
13570;BMP180;6856;51.460;7.158;2022-12-01T08:31:57;101462.00;;;9.90
13570;BMP180;6856;51.460;7.158;2022-12-01T08:34:43;101411.00;;;10.00
13570;BMP180;6856;51.460;7.158;2022-12-01T08:37:24;101426.00;;;9.90
13570;BMP180;6856;51.460;7.158;2022-12-01T08:40:01;101440.00;;;9.90
13570;BMP180;6856;51.460;7.158;2022-12-01T08:42:36;101476.00;;;10.00
13570;BMP180;6856;51.460;7.158;2022-12-01T08:45:17;101466.00;;;10.00
13570;BMP180;6856;51.460;7.158;2022-12-01T08:48:00;101414.00;;;10.00
13570;BMP180;6856;51.460;7.158;2022-12-01T08:50:50;101474.00;;;9.90
13570;BMP180;6856;51.460;7.158;2022-12-01T08:53:29;101417.00;;;9.70
13570;BMP180;6856;51.460;7.158;2022-12-01T08:56:10;101397.00;;;9.90
13570;BMP180;6856;51.460;7.158;2022-12-01T08:58:44;101408.00;;;10.00
13570;BMP180;6856;51.460;7.158;2022-12-01T09:01:28;101488.00;;;9.90
13570;BMP180;6856;51.460;7.158;2022-12-01T09:04:05;101434.00;;;10.00
13570;BMP180;6856;51.460;7.158;2022-12-01T09:06:49;101437.00;;;10.00
13570;BMP180;6856;51.460;7.158;2022-12-01T09:09:38;101390.00;;;10.00
13570;BMP180;6856;51.460;7.158;2022-12-01T09:12:20;101476.00;;;10.00
13570;BMP180;6856;51.460;7.158;2022-12-01T09:15:11;101417.00;;;9.90
13570;BMP180;6856;51.460;7.158;2022-12-01T09:17:51;101446.00;;;9.70
13570;BMP180;6856;51.460;7.158;2022-12-01T09:20:54;101405.00;;;10.00
13570;BMP180;6856;51.460;7.158;2022-12-01T09:23:40;101475.00;;;10.00
13570;BMP180;6856;51.460;7.158;2022-12-01T09:26:17;101480.00;;;10.00
13570;BMP180;6856;51.460;7.158;2022-12-01T09:28:57;101450.00;;;9.80
13570;BMP180;6856;51.460;7.158;2022-12-01T09:31:41;101455.00;;;10.00
13570;BMP180;6856;51.460;7.158;2022-12-01T09:34:59;101473.00;;;10.00
13570;BMP180;6856;51.460;7.158;2022-12-01T09:37:58;101443.00;;;10.00
13570;BMP180;6856;51.460;7.158;2022-12-01T09:40:42;101499.00;;;9.90
13570;BMP180;6856;51.460;7.158;2022-12-01T09:43:36;101425.00;;;10.00
13570;BMP180;6856;51.460;7.158;2022-12-01T09:46:37;101458.00;;;10.00
13570;BMP180;6856;51.460;7.158;2022-12-01T09:49:24;101494.00;;;9.90
13570;BMP180;6856;51.460;7.158;2022-12-01T09:52:19;101396.00;;;9.60
13570;BMP180;6856;51.460;7.158;2022-12-01T09:55:06;101482.00;;;9.90
13570;BMP180;6856;51.460;7.158;2022-12-01T09:57:58;101488.00;;;9.90
13570;BMP180;6856;51.460;7.158;2022-12-01T10:00:42;101441.00;;;9.90
13570;BMP180;6856;51.460;7.158;2022-12-01T10:03:44;101484.00;;;9.90
13570;BMP180;6856;51.460;7.158;2022-12-01T10:06:56;101498.00;;;9.90
13570;BMP180;6856;51.460;7.158;2022-12-01T10:09:45;101490.00;;;9.80
13570;BMP180;6856;51.460;7.158;2022-12-01T10:13:28;101462.00;;;9.90
13570;BMP180;6856;51.460;7.158;2022-12-01T10:16:11;101479.00;;;9.90
13570;BMP180;6856;51.460;7.158;2022-12-01T10:19:02;101429.00;;;9.90
13570;BMP180;6856;51.460;7.158;2022-12-01T10:22:14;101437.00;;;10.00
13570;BMP180;6856;51.460;7.158;2022-12-01T10:25:31;101489.00;;;9.90
13570;BMP180;6856;51.460;7.158;2022-12-01T10:31:51;101414.00;;;9.90
13570;BMP180;6856;51.460;7.158;2022-12-01T10:34:47;101475.00;;;10.00
13570;BMP180;6856;51.460;7.158;2022-12-01T10:37:43;101456.00;;;9.60
13570;BMP180;6856;51.460;7.158;2022-12-01T10:40:38;101465.00;;;9.80
13570;BMP180;6856;51.460;7.158;2022-12-01T10:43:43;101398.00;;;10.00
13570;BMP180;6856;51.460;7.158;2022-12-01T10:46:49;101373.00;;;10.00
13570;BMP180;6856;51.460;7.158;2022-12-01T10:49:41;101457.00;;;10.10
13570;BMP180;6856;51.460;7.158;2022-12-01T10:52:35;101373.00;;;9.80
13570;BMP180;6856;51.460;7.158;2022-12-01T10:55:43;101397.00;;;10.10
13570;BMP180;6856;51.460;7.158;2022-12-01T10:58:56;101388.00;;;10.10
13570;BMP180;6856;51.460;7.158;2022-12-01T11:01:51;101382.00;;;10.20
13570;BMP180;6856;51.460;7.158;2022-12-01T11:04:58;101398.00;;;10.20
13570;BMP180;6856;51.460;7.158;2022-12-01T11:07:44;101385.00;;;10.20
13570;BMP180;6856;51.460;7.158;2022-12-01T11:10:29;101442.00;;;10.20
13570;BMP180;6856;51.460;7.158;2022-12-01T11:13:16;101453.00;;;10.20
13570;BMP180;6856;51.460;7.158;2022-12-01T11:16:36;101410.00;;;10.30
13570;BMP180;6856;51.460;7.158;2022-12-01T11:19:30;101433.00;;;10.30
13570;BMP180;6856;51.460;7.158;2022-12-01T11:22:22;101454.00;;;10.30
13570;BMP180;6856;51.460;7.158;2022-12-01T11:25:19;101367.00;;;10.30
13570;BMP180;6856;51.460;7.158;2022-12-01T11:27:57;101434.00;;;10.20
13570;BMP180;6856;51.460;7.158;2022-12-01T11:30:37;101363.00;;;10.40
13570;BMP180;6856;51.460;7.158;2022-12-01T11:33:19;101424.00;;;10.40
13570;BMP180;6856;51.460;7.158;2022-12-01T11:36:05;101449.00;;;10.40
13570;BMP180;6856;51.460;7.158;2022-12-01T11:38:54;101387.00;;;10.20
13570;BMP180;6856;51.460;7.158;2022-12-01T11:41:35;101450.00;;;10.40
13570;BMP180;6856;51.460;7.158;2022-12-01T11:44:21;101390.00;;;10.40
13570;BMP180;6856;51.460;7.158;2022-12-01T11:47:22;101444.00;;;10.20
13570;BMP180;6856;51.460;7.158;2022-12-01T11:50:25;101412.00;;;10.40
13570;BMP180;6856;51.460;7.158;2022-12-01T11:53:09;101440.00;;;10.20
13570;BMP180;6856;51.460;7.158;2022-12-01T11:56:21;101412.00;;;10.40
13570;BMP180;6856;51.460;7.158;2022-12-01T11:59:14;101463.00;;;10.40
13570;BMP180;6856;51.460;7.158;2022-12-01T12:02:18;101361.00;;;10.40
13570;BMP180;6856;51.460;7.158;2022-12-01T12:05:35;101375.00;;;10.50
13570;BMP180;6856;51.460;7.158;2022-12-01T12:08:29;101427.00;;;10.20
13570;BMP180;6856;51.460;7.158;2022-12-01T12:11:16;101450.00;;;10.50
13570;BMP180;6856;51.460;7.158;2022-12-01T12:14:29;101434.00;;;10.50
13570;BMP180;6856;51.460;7.158;2022-12-01T12:20:57;101372.00;;;10.40
13570;BMP180;6856;51.460;7.158;2022-12-01T12:24:30;101409.00;;;10.50
13570;BMP180;6856;51.460;7.158;2022-12-01T12:27:24;101410.00;;;10.40
13570;BMP180;6856;51.460;7.158;2022-12-01T12:30:19;101443.00;;;10.40
13570;BMP180;6856;51.460;7.158;2022-12-01T12:34:13;101333.00;;;10.40
13570;BMP180;6856;51.460;7.158;2022-12-01T12:37:35;101375.00;;;10.50
13570;BMP180;6856;51.460;7.158;2022-12-01T12:40:47;101407.00;;;10.50
13570;BMP180;6856;51.460;7.158;2022-12-01T12:44:07;101409.00;;;10.40
13570;BMP180;6856;51.460;7.158;2022-12-01T12:47:18;101349.00;;;10.50
13570;BMP180;6856;51.460;7.158;2022-12-01T12:50:27;101403.00;;;10.50
13570;BMP180;6856;51.460;7.158;2022-12-01T12:53:26;101409.00;;;10.50
13570;BMP180;6856;51.460;7.158;2022-12-01T12:56:10;101341.00;;;10.50
13570;BMP180;6856;51.460;7.158;2022-12-01T12:58:55;101397.00;;;10.50
13570;BMP180;6856;51.460;7.158;2022-12-01T13:01:41;101420.00;;;10.40
13570;BMP180;6856;51.460;7.158;2022-12-01T13:04:32;101403.00;;;10.40
13570;BMP180;6856;51.460;7.158;2022-12-01T13:07:34;101394.00;;;10.50
13570;BMP180;6856;51.460;7.158;2022-12-01T13:16:17;101392.00;;;10.50
13570;BMP180;6856;51.460;7.158;2022-12-01T13:23:42;101382.00;;;10.40
13570;BMP180;6856;51.460;7.158;2022-12-01T13:36:46;101379.00;;;10.40
13570;BMP180;6856;51.460;7.158;2022-12-01T13:39:54;101323.00;;;10.30
13570;BMP180;6856;51.460;7.158;2022-12-01T14:04:36;101374.00;;;10.30
13570;BMP180;6856;51.460;7.158;2022-12-01T14:07:35;101356.00;;;10.40
13570;BMP180;6856;51.460;7.158;2022-12-01T14:11:18;101364.00;;;10.40
13570;BMP180;6856;51.460;7.158;2022-12-01T14:13:59;101364.00;;;10.40
13570;BMP180;6856;51.460;7.158;2022-12-01T14:17:02;101383.00;;;10.40
13570;BMP180;6856;51.460;7.158;2022-12-01T14:19:46;101364.00;;;10.40
13570;BMP180;6856;51.460;7.158;2022-12-01T14:23:13;101386.00;;;10.40
13570;BMP180;6856;51.460;7.158;2022-12-01T14:26:27;101395.00;;;10.40
13570;BMP180;6856;51.460;7.158;2022-12-01T14:29:54;101390.00;;;10.40
13570;BMP180;6856;51.460;7.158;2022-12-01T14:32:57;101318.00;;;10.40
13570;BMP180;6856;51.460;7.158;2022-12-01T14:37:02;101403.00;;;10.40
13570;BMP180;6856;51.460;7.158;2022-12-01T15:11:28;101412.00;;;10.20
13570;BMP180;6856;51.460;7.158;2022-12-01T15:14:52;101322.00;;;10.10
13570;BMP180;6856;51.460;7.158;2022-12-01T15:24:18;101368.00;;;10.10
13570;BMP180;6856;51.460;7.158;2022-12-01T15:27:19;101347.00;;;10.10
13570;BMP180;6856;51.460;7.158;2022-12-01T15:29:56;101392.00;;;10.10
13570;BMP180;6856;51.460;7.158;2022-12-01T15:32:37;101334.00;;;10.10
13570;BMP180;6856;51.460;7.158;2022-12-01T15:35:19;101375.00;;;10.00
13570;BMP180;6856;51.460;7.158;2022-12-01T15:38:04;101336.00;;;10.10
13570;BMP180;6856;51.460;7.158;2022-12-01T15:40:39;101398.00;;;10.10
13570;BMP180;6856;51.460;7.158;2022-12-01T15:43:41;101341.00;;;10.00
13570;BMP180;6856;51.460;7.158;2022-12-01T15:46:17;101400.00;;;10.10
13570;BMP180;6856;51.460;7.158;2022-12-01T15:49:25;101362.00;;;10.00
13570;BMP180;6856;51.460;7.158;2022-12-01T15:52:22;101351.00;;;10.00
13570;BMP180;6856;51.460;7.158;2022-12-01T15:55:02;101346.00;;;10.00
13570;BMP180;6856;51.460;7.158;2022-12-01T15:57:39;101410.00;;;10.00
13570;BMP180;6856;51.460;7.158;2022-12-01T16:00:27;101350.00;;;10.00
13570;BMP180;6856;51.460;7.158;2022-12-01T16:03:52;101346.00;;;10.00
13570;BMP180;6856;51.460;7.158;2022-12-01T16:06:56;101304.00;;;10.00
13570;BMP180;6856;51.460;7.158;2022-12-01T16:10:00;101336.00;;;10.00
13570;BMP180;6856;51.460;7.158;2022-12-01T16:17:00;101304.00;;;9.90
13570;BMP180;6856;51.460;7.158;2022-12-01T16:19:54;101319.00;;;9.80
13570;BMP180;6856;51.460;7.158;2022-12-01T16:22:48;101277.00;;;9.90
13570;BMP180;6856;51.460;7.158;2022-12-01T16:25:48;101299.00;;;9.90
13570;BMP180;6856;51.460;7.158;2022-12-01T16:28:52;101272.00;;;9.90
13570;BMP180;6856;51.460;7.158;2022-12-01T16:32:09;101362.00;;;9.80
13570;BMP180;6856;51.460;7.158;2022-12-01T16:35:24;101363.00;;;9.90
13570;BMP180;6856;51.460;7.158;2022-12-01T16:38:22;101364.00;;;9.80
13570;BMP180;6856;51.460;7.158;2022-12-01T16:41:16;101363.00;;;9.80
13570;BMP180;6856;51.460;7.158;2022-12-01T16:44:22;101390.00;;;9.70
13570;BMP180;6856;51.460;7.158;2022-12-01T16:47:38;101380.00;;;9.80
13570;BMP180;6856;51.460;7.158;2022-12-01T16:50:38;101333.00;;;9.80
13570;BMP180;6856;51.460;7.158;2022-12-01T16:53:40;101288.00;;;9.70
13570;BMP180;6856;51.460;7.158;2022-12-01T17:00:56;101385.00;;;9.70
13570;BMP180;6856;51.460;7.158;2022-12-01T17:03:50;101327.00;;;9.70
13570;BMP180;6856;51.460;7.158;2022-12-01T17:06:26;101350.00;;;9.70
13570;BMP180;6856;51.460;7.158;2022-12-01T17:10:18;101378.00;;;9.70
13570;BMP180;6856;51.460;7.158;2022-12-01T17:13:04;101330.00;;;9.70
13570;BMP180;6856;51.460;7.158;2022-12-01T17:15:55;101356.00;;;9.70
13570;BMP180;6856;51.460;7.158;2022-12-01T17:18:42;101406.00;;;9.70
13570;BMP180;6856;51.460;7.158;2022-12-01T17:25:23;101331.00;;;9.70
13570;BMP180;6856;51.460;7.158;2022-12-01T17:28:27;101349.00;;;9.70
13570;BMP180;6856;51.460;7.158;2022-12-01T17:31:20;101409.00;;;9.60
13570;BMP180;6856;51.460;7.158;2022-12-01T17:34:50;101334.00;;;9.70
13570;BMP180;6856;51.460;7.158;2022-12-01T17:38:09;101408.00;;;9.60
13570;BMP180;6856;51.460;7.158;2022-12-01T17:41:20;101359.00;;;9.60
13570;BMP180;6856;51.460;7.158;2022-12-01T17:44:02;101371.00;;;9.50
13570;BMP180;6856;51.460;7.158;2022-12-01T17:46:55;101415.00;;;9.50
13570;BMP180;6856;51.460;7.158;2022-12-01T17:53:14;101382.00;;;9.50
13570;BMP180;6856;51.460;7.158;2022-12-01T17:55:53;101330.00;;;9.50
13570;BMP180;6856;51.460;7.158;2022-12-01T17:58:34;101362.00;;;9.50
13570;BMP180;6856;51.460;7.158;2022-12-01T18:01:20;101390.00;;;9.50
13570;BMP180;6856;51.460;7.158;2022-12-01T18:04:05;101376.00;;;9.50
13570;BMP180;6856;51.460;7.158;2022-12-01T18:07:04;101412.00;;;9.40
13570;BMP180;6856;51.460;7.158;2022-12-01T18:14:12;101421.00;;;9.40
13570;BMP180;6856;51.460;7.158;2022-12-01T18:18:58;101360.00;;;9.30
13570;BMP180;6856;51.460;7.158;2022-12-01T18:43:10;101422.00;;;9.30
13570;BMP180;6856;51.460;7.158;2022-12-01T18:51:11;101414.00;;;9.10